createdAt,value
2023-04-21T00:00:02.931Z,68.50
2023-04-21T00:02:55.381Z,68.86
2023-04-21T00:05:24.095Z,67.88
2023-04-21T00:07:52.746Z,68.58
2023-04-21T00:10:21.341Z,70.42
2023-04-21T00:12:49.374Z,69.61
2023-04-21T00:15:17.779Z,70.28
2023-04-21T00:17:46.125Z,68.76
2023-04-21T00:20:14.648Z,68.97
2023-04-21T00:22:42.798Z,70.25
2023-04-21T00:25:10.886Z,70.08
2023-04-21T00:27:38.963Z,70.05
2023-04-21T00:30:07.851Z,69.75
2023-04-21T00:32:38.410Z,70.31
2023-04-21T00:35:07.279Z,70.40
2023-04-21T00:37:35.464Z,70.11
2023-04-21T00:40:05.914Z,70.32
2023-04-21T00:42:34.146Z,70.38
2023-04-21T00:45:04.074Z,70.49
2023-04-21T00:47:32.295Z,70.28
2023-04-21T00:50:00.936Z,70.34
2023-04-21T00:52:30.226Z,70.51
2023-04-21T00:54:59.939Z,70.86
2023-04-21T00:57:29.135Z,71.28
2023-04-21T00:59:57.309Z,71.85
2023-04-21T01:02:26.447Z,72.13
2023-04-21T01:04:54.886Z,71.51
2023-04-21T01:07:25.356Z,73.44
2023-04-21T01:09:53.387Z,72.48
2023-04-21T01:12:21.869Z,71.95
2023-04-21T01:14:50.758Z,71.54
2023-04-21T01:17:19.063Z,71.57
2023-04-21T01:19:50.752Z,72.19
2023-04-21T01:22:18.995Z,71.56
2023-04-21T01:24:48.909Z,71.27
2023-04-21T01:27:19.318Z,73.00
2023-04-21T01:29:51.657Z,72.05
2023-04-21T01:32:26.017Z,71.62
2023-04-21T01:34:55.510Z,71.79
2023-04-21T01:37:25.634Z,71.64
2023-04-21T01:39:56.752Z,71.65
2023-04-21T01:42:28.492Z,71.65
2023-04-21T01:44:57.835Z,71.47
2023-04-21T01:47:26.467Z,71.44
2023-04-21T01:49:56.302Z,71.37
2023-04-21T01:52:24.624Z,72.14
2023-04-21T01:54:55.575Z,71.06
2023-04-21T01:57:23.658Z,71.22
2023-04-21T01:59:52.740Z,71.03
2023-04-21T02:02:20.959Z,71.38
2023-04-21T02:04:49.273Z,73.91
2023-04-21T02:07:17.650Z,72.77
2023-04-21T02:09:46.082Z,71.84
2023-04-21T02:12:16.268Z,73.96
2023-04-21T02:14:44.460Z,73.43
2023-04-21T02:17:13.622Z,73.36
2023-04-21T02:19:41.718Z,75.01
2023-04-21T02:22:12.953Z,74.54
2023-04-21T02:24:41.234Z,73.72
2023-04-21T02:27:09.249Z,72.85
2023-04-21T02:29:38.122Z,72.69
2023-04-21T02:32:22.174Z,72.85
2023-04-21T02:34:54.088Z,76.12
2023-04-21T02:37:22.569Z,75.80
2023-04-21T02:39:50.665Z,74.65
2023-04-21T02:42:18.829Z,73.96
2023-04-21T02:44:49.353Z,73.88
2023-04-21T02:47:17.488Z,73.95
2023-04-21T02:49:45.801Z,74.20
2023-04-21T02:52:13.922Z,76.18
2023-04-21T02:54:42.116Z,78.88
2023-04-21T02:57:10.421Z,79.03
2023-04-21T02:59:38.592Z,78.22
2023-04-21T03:02:06.648Z,77.15
2023-04-21T03:04:39.470Z,76.57
2023-04-21T03:07:12.646Z,76.72
2023-04-21T03:09:41.637Z,77.24
2023-04-21T03:12:09.813Z,76.75
2023-04-21T03:14:37.989Z,76.84
2023-04-21T03:17:06.365Z,76.30
2023-04-21T03:19:34.544Z,75.74
2023-04-21T03:22:03.024Z,76.49
2023-04-21T03:24:31.419Z,76.33
2023-04-21T03:27:00.287Z,76.24
2023-04-21T03:29:28.678Z,76.00
2023-04-21T03:31:56.819Z,75.47
2023-04-21T03:34:25.786Z,75.51
2023-04-21T03:36:55.984Z,75.49
2023-04-21T03:39:24.858Z,75.59
2023-04-21T03:41:53.554Z,75.74
2023-04-21T03:44:21.712Z,75.61
2023-04-21T03:46:53.569Z,75.80
2023-04-21T03:49:23.837Z,75.77
2023-04-21T03:51:52.067Z,75.56
2023-04-21T03:54:20.245Z,75.18
2023-04-21T03:56:48.725Z,74.94
2023-04-21T03:59:17.682Z,74.89
2023-04-21T04:01:45.959Z,75.09
2023-04-21T04:04:14.372Z,74.92
2023-04-21T04:06:44.911Z,74.66
2023-04-21T04:09:13.182Z,75.00
2023-04-21T04:11:41.461Z,74.86
2023-04-21T04:14:09.759Z,74.75
2023-04-21T04:16:37.831Z,74.54
2023-04-21T04:19:06.126Z,74.29
2023-04-21T04:21:34.922Z,74.32
2023-04-21T04:24:03.406Z,74.84
2023-04-21T04:26:34.601Z,75.09
2023-04-21T04:29:02.744Z,74.93
2023-04-21T04:31:30.958Z,74.88
2023-04-21T04:33:59.043Z,74.33
2023-04-21T04:36:28.523Z,74.17
2023-04-21T04:38:56.702Z,74.37
2023-04-21T04:41:24.769Z,74.49
2023-04-21T04:43:53.759Z,74.42
2023-04-21T04:46:21.959Z,74.22
2023-04-21T04:48:50.439Z,74.20
2023-04-21T04:51:18.627Z,75.04
2023-04-21T04:53:47.131Z,75.88
2023-04-21T04:56:15.553Z,74.97
2023-04-21T04:58:46.616Z,74.97
2023-04-21T05:01:17.956Z,74.79
2023-04-21T05:03:47.202Z,74.60
2023-04-21T05:06:15.631Z,74.51
2023-04-21T05:08:43.839Z,74.34
2023-04-21T05:11:12.153Z,74.53
2023-04-21T05:13:40.818Z,74.04
2023-04-21T05:16:10.393Z,73.58
2023-04-21T05:18:38.766Z,73.63
2023-04-21T05:21:07.427Z,73.51
2023-04-21T05:23:35.636Z,73.15
2023-04-21T05:26:04.740Z,73.60
2023-04-21T05:28:33.572Z,71.81
2023-04-21T05:31:01.783Z,70.44
2023-04-21T05:33:32.078Z,69.28
2023-04-21T05:36:01.057Z,68.37
2023-04-21T05:38:29.323Z,67.86
2023-04-21T05:40:57.543Z,67.93
2023-04-21T05:43:25.729Z,67.13
2023-04-21T05:45:54.660Z,66.83
2023-04-21T05:48:23.602Z,66.89
2023-04-21T05:50:52.035Z,67.24
2023-04-21T05:53:20.314Z,67.62
2023-04-21T05:55:48.453Z,67.56
2023-04-21T05:58:16.506Z,66.24
2023-04-21T06:00:44.559Z,66.00
2023-04-21T06:03:12.784Z,64.63
2023-04-21T06:05:41.125Z,64.47
2023-04-21T06:08:09.507Z,64.76
2023-04-21T06:10:37.683Z,64.79
2023-04-21T06:13:05.854Z,64.75
2023-04-21T06:15:34.150Z,62.70
2023-04-21T06:18:02.303Z,63.15
2023-04-21T06:20:30.557Z,62.83
2023-04-21T06:22:58.967Z,62.78
2023-04-21T06:25:27.248Z,61.90
2023-04-21T06:27:56.435Z,61.50
2023-04-21T06:30:24.565Z,60.93
2023-04-21T06:32:52.847Z,61.06
2023-04-21T06:35:20.963Z,61.00
2023-04-21T06:37:58.065Z,60.53
2023-04-21T06:40:26.095Z,60.09
2023-04-21T06:42:54.170Z,58.82
2023-04-21T06:45:22.676Z,57.79
2023-04-21T06:47:50.800Z,57.93
2023-04-21T06:50:19.233Z,56.18
2023-04-21T06:52:47.497Z,55.67
2023-04-21T06:55:16.015Z,54.51
2023-04-21T06:57:44.305Z,53.23
2023-04-21T07:00:13.973Z,52.94
2023-04-21T07:02:42.610Z,52.63
2023-04-21T07:05:10.760Z,53.09
2023-04-21T07:07:38.803Z,53.34
2023-04-21T07:10:07.632Z,53.86
2023-04-21T07:12:35.974Z,53.75
2023-04-21T07:15:05.176Z,52.72
2023-04-21T07:17:33.166Z,52.28
2023-04-21T07:20:01.439Z,52.44
2023-04-21T07:22:29.591Z,51.73
2023-04-21T07:24:58.068Z,51.44
2023-04-21T07:27:26.034Z,50.83
2023-04-21T07:29:54.215Z,51.74
2023-04-21T07:32:22.479Z,51.56
2023-04-21T07:34:50.872Z,50.61
2023-04-21T07:37:19.158Z,50.52
2023-04-21T07:39:50.451Z,49.58
2023-04-21T07:42:21.439Z,50.50
2023-04-21T07:44:49.630Z,50.19
2023-04-21T07:47:20.994Z,49.09
2023-04-21T07:49:49.326Z,48.79
2023-04-21T07:52:17.512Z,48.36
2023-04-21T07:54:51.064Z,48.82
2023-04-21T07:57:19.336Z,48.76
2023-04-21T07:59:47.766Z,48.76
2023-04-21T08:02:16.364Z,47.67
2023-04-21T08:04:44.782Z,48.73
2023-04-21T08:07:14.898Z,48.63
2023-04-21T08:09:43.408Z,47.23
2023-04-21T08:12:11.551Z,46.56
2023-04-21T08:14:40.453Z,44.75
2023-04-21T08:17:08.744Z,44.34
2023-04-21T08:19:36.794Z,43.99
2023-04-21T08:22:04.928Z,44.17
2023-04-21T08:24:32.926Z,44.28
2023-04-21T08:27:02.406Z,43.69
2023-04-21T08:29:30.770Z,43.85
2023-04-21T08:31:58.940Z,45.11
2023-04-21T08:34:27.886Z,44.89
2023-04-21T08:36:56.294Z,44.41
2023-04-21T08:39:24.404Z,43.84
2023-04-21T08:41:52.667Z,43.91
2023-04-21T08:44:21.922Z,43.98
2023-04-21T08:46:52.905Z,44.01
2023-04-21T08:49:21.753Z,43.21
2023-04-21T08:51:50.281Z,43.96
2023-04-21T08:54:18.417Z,42.56
2023-04-21T08:56:48.445Z,42.46
2023-04-21T08:59:16.546Z,43.27
2023-04-21T09:02:07.393Z,42.97
2023-04-21T09:04:39.033Z,41.47
2023-04-21T09:07:09.022Z,41.79
2023-04-21T09:09:56.977Z,40.90
2023-04-21T09:12:25.145Z,40.12
2023-04-21T09:14:53.624Z,39.73
2023-04-21T09:17:33.735Z,38.37
2023-04-21T09:20:18.338Z,38.55
2023-04-21T09:22:49.777Z,38.71
2023-04-21T09:25:20.576Z,37.99
2023-04-21T09:27:48.711Z,37.10
2023-04-21T09:30:20.640Z,35.94
2023-04-21T09:32:49.907Z,36.60
2023-04-21T09:35:18.299Z,36.36
2023-04-21T09:37:46.596Z,35.53
2023-04-21T09:40:17.862Z,36.06
2023-04-21T09:42:46.472Z,35.16
2023-04-21T09:47:52.131Z,35.73
2023-04-21T09:50:39.334Z,35.49
2023-04-21T09:53:16.769Z,35.62
2023-04-21T09:55:49.823Z,35.38
2023-04-21T09:58:22.693Z,35.16
2023-04-21T10:00:53.778Z,35.06
2023-04-21T10:03:27.435Z,34.36
2023-04-21T10:05:56.406Z,34.21
2023-04-21T10:08:24.510Z,34.37
2023-04-21T10:10:54.454Z,33.83
2023-04-21T10:13:23.106Z,34.04
2023-04-21T10:16:08.332Z,33.30
2023-04-21T10:18:44.518Z,33.20
2023-04-21T10:21:21.434Z,33.39
2023-04-21T10:23:52.112Z,33.46
2023-04-21T10:26:32.700Z,34.16
2023-04-21T10:29:09.614Z,35.23
2023-04-21T10:31:51.718Z,34.30
2023-04-21T10:34:34.726Z,34.11
2023-04-21T10:37:05.785Z,35.33
2023-04-21T10:39:47.564Z,35.58
2023-04-21T10:42:27.464Z,34.95
2023-04-21T10:44:58.680Z,33.73
2023-04-21T10:47:37.228Z,34.77
2023-04-21T10:50:28.149Z,35.49
2023-04-21T10:52:59.614Z,35.35
2023-04-21T10:55:29.864Z,35.20
2023-04-21T10:58:01.630Z,34.85
2023-04-21T11:00:29.892Z,35.42
2023-04-21T11:03:03.528Z,35.10
2023-04-21T11:05:36.393Z,34.54
2023-04-21T11:08:06.100Z,33.90
2023-04-21T11:10:45.166Z,34.42
2023-04-21T11:13:13.700Z,34.40
2023-04-21T11:15:41.875Z,34.20
2023-04-21T11:18:10.239Z,33.99
2023-04-21T11:20:42.475Z,32.88
2023-04-21T11:23:18.102Z,33.01
2023-04-21T11:25:48.866Z,35.68
2023-04-21T11:28:22.407Z,34.22
2023-04-21T11:30:50.926Z,33.53
2023-04-21T11:33:19.407Z,31.74
2023-04-21T11:35:47.646Z,32.00
2023-04-21T11:38:16.615Z,31.96
2023-04-21T11:40:48.050Z,31.90
2023-04-21T11:43:16.418Z,30.80
2023-04-21T11:45:49.703Z,31.59
2023-04-21T11:48:19.722Z,32.86
2023-04-21T11:50:50.079Z,32.40
2023-04-21T11:53:19.991Z,32.89
2023-04-21T11:55:48.421Z,31.43
2023-04-21T11:58:18.168Z,31.88
2023-04-21T12:00:46.807Z,32.11
2023-04-21T12:03:16.359Z,32.71
2023-04-21T12:05:47.031Z,32.41
2023-04-21T12:08:16.595Z,32.33
2023-04-21T12:10:47.160Z,32.76
2023-04-21T12:13:25.492Z,31.77
2023-04-21T12:15:53.900Z,32.81
2023-04-21T12:18:22.127Z,33.31
2023-04-21T12:20:52.430Z,32.67
2023-04-21T12:23:20.638Z,32.46
2023-04-21T12:25:49.036Z,31.94
2023-04-21T12:28:18.238Z,31.95
2023-04-21T12:30:46.312Z,31.97
2023-04-21T12:33:14.641Z,32.37
2023-04-21T12:35:43.207Z,31.65
2023-04-21T12:38:11.635Z,31.44
2023-04-21T12:40:39.601Z,32.06
2023-04-21T12:43:07.908Z,33.20
2023-04-21T12:45:36.919Z,32.58
2023-04-21T12:48:05.479Z,33.33
2023-04-21T12:50:33.607Z,33.20
2023-04-21T12:53:01.724Z,32.93
2023-04-21T12:55:30.000Z,33.26
2023-04-21T12:57:58.368Z,33.07
2023-04-21T13:00:26.395Z,32.90
2023-04-21T13:02:54.700Z,33.74
2023-04-21T13:05:22.899Z,33.31
2023-04-21T13:07:51.037Z,32.74
2023-04-21T13:10:19.094Z,32.10
2023-04-21T13:12:47.376Z,31.66
2023-04-21T13:15:15.482Z,31.49
2023-04-21T13:17:43.504Z,31.96
2023-04-21T13:20:12.308Z,32.36
2023-04-21T13:22:40.726Z,33.36
2023-04-21T13:25:09.290Z,33.34
2023-04-21T13:27:39.970Z,33.24
2023-04-21T13:30:11.035Z,32.62
2023-04-21T13:32:39.810Z,33.63
2023-04-21T13:35:11.221Z,33.54
2023-04-21T13:37:40.010Z,33.39
2023-04-21T13:40:10.563Z,34.08
2023-04-21T13:42:39.471Z,33.49
2023-04-21T13:45:07.908Z,33.76
2023-04-21T13:47:36.227Z,34.11
2023-04-21T13:50:05.138Z,34.22
2023-04-21T13:52:34.992Z,34.57
2023-04-21T13:55:05.365Z,34.40
2023-04-21T13:57:33.563Z,34.55
2023-04-21T14:00:01.788Z,34.21
2023-04-21T14:02:33.020Z,34.00
2023-04-21T14:05:01.552Z,34.96
2023-04-21T14:07:30.832Z,34.88
2023-04-21T14:09:58.830Z,35.69
2023-04-21T14:12:27.174Z,34.90
2023-04-21T14:14:55.185Z,35.59
2023-04-21T14:17:23.403Z,35.89
2023-04-21T14:19:53.080Z,36.60
2023-04-21T14:22:23.142Z,36.39
2023-04-21T14:24:51.911Z,35.69
2023-04-21T14:27:20.292Z,35.70
2023-04-21T14:29:48.485Z,35.90
2023-04-21T14:32:16.603Z,35.75
2023-04-21T14:34:44.748Z,36.52
2023-04-21T14:37:13.315Z,36.80
2023-04-21T14:42:12.723Z,36.20
2023-04-21T14:44:40.995Z,36.55
2023-04-21T14:47:10.713Z,36.51
2023-04-21T14:49:39.551Z,37.39
2023-04-21T14:52:08.300Z,37.06
2023-04-21T14:54:36.595Z,36.71
2023-04-21T14:57:18.686Z,36.56
2023-04-21T14:59:50.073Z,36.67
2023-04-21T15:02:20.205Z,36.42
2023-04-21T15:04:49.062Z,36.30
2023-04-21T15:07:22.815Z,36.19
2023-04-21T15:09:52.627Z,36.05
2023-04-21T15:12:21.136Z,35.62
2023-04-21T15:14:49.475Z,35.71
2023-04-21T15:17:17.771Z,37.44
2023-04-21T15:19:46.154Z,37.23
2023-04-21T15:22:15.483Z,37.48
2023-04-21T15:24:44.043Z,37.61
2023-04-21T15:27:12.529Z,37.82
2023-04-21T15:29:40.893Z,37.14
2023-04-21T15:32:09.685Z,37.58
2023-04-21T15:34:37.792Z,38.41
2023-04-21T15:37:06.403Z,38.65
2023-04-21T15:39:34.930Z,38.86
2023-04-21T15:42:04.720Z,39.61
2023-04-21T15:44:34.316Z,38.83
2023-04-21T15:47:02.924Z,38.26
2023-04-21T15:49:31.489Z,37.85
2023-04-21T15:51:59.905Z,37.57
2023-04-21T15:54:28.428Z,39.06
2023-04-21T15:56:57.628Z,39.55
2023-04-21T15:59:26.351Z,39.27
2023-04-21T16:01:57.224Z,40.22
2023-04-21T16:04:25.868Z,41.10
2023-04-21T16:06:56.616Z,40.29
2023-04-21T16:09:25.049Z,39.18
2023-04-21T16:11:57.818Z,39.73
2023-04-21T16:14:26.080Z,40.20
2023-04-21T16:16:54.304Z,41.20
2023-04-21T16:19:25.380Z,42.06
2023-04-21T16:21:53.771Z,41.53
2023-04-21T16:24:22.485Z,42.05
2023-04-21T16:26:53.692Z,42.23
2023-04-21T16:29:22.033Z,44.22
2023-04-21T16:31:50.220Z,44.46
2023-04-21T16:34:18.532Z,45.50
2023-04-21T16:36:46.888Z,44.64
2023-04-21T16:39:14.935Z,44.36
2023-04-21T16:41:43.169Z,43.72
2023-04-21T16:44:11.238Z,43.88
2023-04-21T16:46:39.546Z,44.77
2023-04-21T16:49:07.751Z,45.82
2023-04-21T16:51:37.119Z,46.62
2023-04-21T16:54:04.981Z,48.01
2023-04-21T16:56:33.147Z,47.08
2023-04-21T16:59:01.098Z,47.69
2023-04-21T17:01:29.514Z,47.69
2023-04-21T17:03:58.013Z,47.75
2023-04-21T17:06:26.449Z,48.36
2023-04-21T17:08:59.805Z,47.76
2023-04-21T17:11:28.787Z,47.99
2023-04-21T17:13:56.898Z,48.22
2023-04-21T17:16:25.627Z,48.61
2023-04-21T17:18:55.077Z,48.72
2023-04-21T17:21:23.240Z,49.05
2023-04-21T17:23:51.454Z,49.21
2023-04-21T17:26:19.821Z,49.91
2023-04-21T17:28:49.172Z,50.13
2023-04-21T17:31:17.890Z,50.10
2023-04-21T17:33:46.126Z,50.30
2023-04-21T17:36:16.744Z,50.25
2023-04-21T17:38:44.991Z,49.54
2023-04-21T17:41:13.866Z,50.71
2023-04-21T17:43:42.051Z,51.42
2023-04-21T17:46:10.370Z,51.57
2023-04-21T17:48:38.480Z,51.91
2023-04-21T17:51:06.708Z,50.85
2023-04-21T17:53:34.866Z,49.87
2023-04-21T17:56:03.019Z,49.48
2023-04-21T17:58:31.609Z,49.92
2023-04-21T18:00:59.786Z,50.87
2023-04-21T18:03:28.518Z,51.74
2023-04-21T18:05:57.368Z,53.08
2023-04-21T18:08:25.600Z,54.11
2023-04-21T18:10:55.603Z,53.97
2023-04-21T18:13:23.928Z,54.29
2023-04-21T18:15:52.226Z,54.01
2023-04-21T18:18:20.444Z,53.48
2023-04-21T18:20:49.691Z,53.70
2023-04-21T18:23:17.814Z,53.20
2023-04-21T18:25:46.637Z,52.62
2023-04-21T18:28:16.964Z,53.68
2023-04-21T18:30:45.765Z,53.71
2023-04-21T18:33:14.038Z,53.96
2023-04-21T18:35:42.402Z,54.74
2023-04-21T18:38:11.875Z,55.01
2023-04-21T18:40:41.280Z,55.27
2023-04-21T18:43:10.754Z,54.76
2023-04-21T18:45:39.200Z,54.03
2023-04-21T18:48:08.073Z,54.32
2023-04-21T18:50:40.278Z,54.63
2023-04-21T18:53:09.302Z,53.77
2023-04-21T18:55:47.740Z,52.96
2023-04-21T18:58:16.478Z,52.77
2023-04-21T19:00:47.749Z,54.00
2023-04-21T19:03:16.141Z,54.68
2023-04-21T19:05:44.652Z,54.93
2023-04-21T19:08:13.995Z,54.84
2023-04-21T19:10:42.870Z,54.97
2023-04-21T19:13:11.031Z,55.34
2023-04-21T19:15:39.416Z,55.87
2023-04-21T19:18:07.731Z,56.80
2023-04-21T19:20:38.142Z,59.00
2023-04-21T19:23:06.334Z,60.00
2023-04-21T19:25:36.416Z,59.18
2023-04-21T19:28:06.590Z,57.58
2023-04-21T19:30:35.017Z,58.40
2023-04-21T19:33:05.266Z,60.78
2023-04-21T19:35:34.134Z,60.81
2023-04-21T19:38:02.236Z,59.69
2023-04-21T19:40:30.793Z,59.76
2023-04-21T19:42:58.990Z,59.41
2023-04-21T19:45:27.436Z,60.48
2023-04-21T19:47:56.023Z,60.00
2023-04-21T19:50:24.518Z,60.10
2023-04-21T19:52:52.814Z,59.74
2023-04-21T19:55:20.942Z,59.05
2023-04-21T19:57:49.171Z,58.54
2023-04-21T20:00:17.614Z,59.61
2023-04-21T20:02:46.369Z,60.02
2023-04-21T20:05:14.898Z,60.64
2023-04-21T20:07:43.363Z,60.55
2023-04-21T20:10:11.792Z,61.25
2023-04-21T20:12:40.245Z,60.73
2023-04-21T20:15:09.163Z,60.92
2023-04-21T20:17:37.347Z,61.10
2023-04-21T20:20:06.906Z,61.25
2023-04-21T20:22:36.194Z,60.30
2023-04-21T20:25:04.601Z,59.45
2023-04-21T20:27:33.266Z,58.99
2023-04-21T20:30:01.549Z,61.70
2023-04-21T20:32:29.838Z,60.98
2023-04-21T20:34:59.840Z,60.81
2023-04-21T20:37:28.533Z,62.39
2023-04-21T20:39:57.227Z,63.63
2023-04-21T20:42:25.486Z,64.36
2023-04-21T20:44:54.064Z,64.12
2023-04-21T20:47:23.270Z,63.19
2023-04-21T20:49:52.025Z,63.15
2023-04-21T20:52:20.298Z,62.87
2023-04-21T20:54:48.410Z,61.91
2023-04-21T20:57:16.579Z,62.77
2023-04-21T20:59:45.510Z,62.29
2023-04-21T21:02:14.046Z,61.09
2023-04-21T21:04:42.641Z,61.17
2023-04-21T21:07:11.237Z,61.09
2023-04-21T21:09:40.127Z,61.38
2023-04-21T21:12:08.492Z,61.93
2023-04-21T21:14:36.583Z,61.80
2023-04-21T21:17:05.206Z,61.93
2023-04-21T21:19:33.490Z,63.45
2023-04-21T21:22:01.799Z,62.32
2023-04-21T21:24:29.993Z,62.82
2023-04-21T21:26:58.385Z,63.82
2023-04-21T21:29:26.632Z,62.66
2023-04-21T21:31:54.772Z,61.94
2023-04-21T21:34:22.883Z,62.02
2023-04-21T21:36:51.256Z,61.80
2023-04-21T21:39:19.531Z,62.42
2023-04-21T21:41:47.809Z,62.26
2023-04-21T21:44:15.884Z,63.02
2023-04-21T21:46:44.318Z,63.27
2023-04-21T21:49:12.432Z,63.64
2023-04-21T21:51:41.139Z,64.13
2023-04-21T21:54:09.398Z,64.65
2023-04-21T21:56:37.773Z,66.12
2023-04-21T21:59:06.996Z,65.52
2023-04-21T22:01:35.130Z,65.16
2023-04-21T22:04:03.797Z,65.74
2023-04-21T22:06:34.379Z,65.90
2023-04-21T22:09:02.441Z,65.69
2023-04-21T22:11:31.043Z,65.49
2023-04-21T22:14:07.770Z,64.43
2023-04-21T22:16:42.990Z,63.82
2023-04-21T22:19:12.596Z,64.31
2023-04-21T22:21:40.732Z,65.39
2023-04-21T22:24:09.017Z,64.68
2023-04-21T22:26:37.191Z,65.48
2023-04-21T22:29:05.547Z,65.59
2023-04-21T22:31:33.899Z,65.31
2023-04-21T22:34:02.312Z,65.19
2023-04-21T22:36:32.373Z,64.66
2023-04-21T22:39:00.524Z,65.42
2023-04-21T22:41:28.775Z,66.36
2023-04-21T22:43:56.976Z,66.60
2023-04-21T22:46:25.610Z,66.59
2023-04-21T22:48:54.699Z,66.45
2023-04-21T22:51:23.215Z,65.84
2023-04-21T22:53:51.384Z,64.56
2023-04-21T22:56:19.663Z,65.42
2023-04-21T22:58:47.969Z,65.70
2023-04-21T23:01:16.845Z,65.93
2023-04-21T23:03:45.235Z,65.01
2023-04-21T23:06:13.780Z,63.79
2023-04-21T23:08:42.077Z,64.06
2023-04-21T23:11:10.231Z,64.82
2023-04-21T23:13:38.441Z,65.02
2023-04-21T23:16:07.164Z,64.70
2023-04-21T23:18:36.020Z,65.12
2023-04-21T23:21:04.494Z,65.10
2023-04-21T23:23:32.962Z,67.68
2023-04-21T23:26:01.157Z,66.99
2023-04-21T23:28:29.361Z,67.50
2023-04-21T23:30:58.212Z,69.49
2023-04-21T23:33:26.872Z,68.64
2023-04-21T23:35:56.296Z,67.22
2023-04-21T23:38:24.421Z,66.43
2023-04-21T23:40:52.647Z,66.51
2023-04-21T23:43:20.843Z,66.35
2023-04-21T23:45:48.901Z,65.94
2023-04-21T23:48:17.166Z,65.31
2023-04-21T23:50:45.570Z,66.21
2023-04-21T23:53:14.055Z,64.67
2023-04-21T23:55:43.224Z,65.84
2023-04-21T23:58:12.122Z,66.37
